KSDY/SDY METAR and TAF weather

Enter ICAO airport designator
Station Type Date Time Source
KSDY METAR 2022/11/30 08:56 UTC NOAA

KSDY 300856Z AUTO 29007KT 10SM OVC022 M13/M16 A3016 RMK AO2 SNE21 SLP262 P0000 60000 T11281161 51017 FZRANO


Station Type Date Time Source
KSDY Decoded METAR 2022/11/30 08:56 UTC NOAA

Sidney-Richland, MT, United States (KSDY) 47-42N 104-12W
Nov 30, 2022 - 03:56 AM EST / 2022.11.30 0856 UTC
Wind: from the WNW (290 degrees) at 8 MPH (7 KT):0
Visibility: 10 mile(s):0
Sky conditions: overcast
Precipitation last hour: A trace
Temperature: 9.0 F (-12.8 C)
Windchill: -4 F (-20 C):1
Dew Point: 3.0 F (-16.1 C)
Relative Humidity: 76%
Pressure (altimeter): 30.16 in. Hg (1021 hPa)
Pressure tendency: 0.05 inches (1.7 hPa) higher than three hours ago
ob: KSDY 300856Z AUTO 29007KT 10SM OVC022 M13/M16 A3016 RMK AO2 SNE21 SLP262 P0000 60000 T11281161 51017 FZRANO
cycle: 9

Station Type Date Time Source
KSDY TAF 2022/11/30 06:24 UTC NOAA

TAF KSDY 300522Z 3006/0106 30013KT P6SM SCT028
FM301200 28007KT P6SM FEW070
FM302000 14010KT P6SM FEW140
FM010300 14011G19KT P6SM BKN120 WS020/17040KT

Example: see airport list